»·PEaware :: N1545L KSBA-KSNA

N1545L :: KSBA-KSNA

FLIGHT INFORMATION

Flight Status: Arrived
Operator: Privately registered:
United States
More flights under this callsign
Pilot: Sanjiv S. (4490)
Aircraft: Unknown
(DA62)
More flights by this aircraft type
Origin: KSBA Santa Barbara Mun
United States
Destination: KSNA John Wayne-Orange Co
United States
More flights between these airports :: More routes between these airports
Route: +KWANG CMA VNY V186 BAYJY V363 POXKU V8 SLI
File this flight plan on PilotEdge
Remarks: TEC route SBAP6
Altitude:
(Current/Filed)
5,000ft
Speed:
(Current/Filed)
140kts
Departed: 10-Oct-18 10:32 AM
Arrived: 10-Oct-18 11:35 AM
Distance/Time
Traveled:
108nm/1:03
Distance/Time
To Go:
Arrived

Flight Plot

Page will automatically refresh every two minutes.


Map Options




Map Legend


Flown Route
Filed Route
Departure Airport
Arrival Airport
Navaid (VOR, NDB)
Fix

Horizontal Profiles

Position Reports

Time Latitude Longitude Heading Altitude Ground
Speed
10-Oct-18 09:53 34.423079 -119.836090 161 17ft 0kts
10-Oct-18 09:54 34.423079 -119.836090 161 17ft 0kts
10-Oct-18 09:55 34.423079 -119.836090 161 17ft 0kts
10-Oct-18 09:56 34.423079 -119.836090 161 17ft 0kts
10-Oct-18 09:57 34.423079 -119.836090 161 17ft 0kts
10-Oct-18 09:58 34.423079 -119.836090 161 17ft 0kts
10-Oct-18 09:59 34.423079 -119.836090 161 17ft 0kts
10-Oct-18 10:00 34.423079 -119.836090 161 17ft 0kts
10-Oct-18 10:01 34.423079 -119.836090 161 17ft 0kts
10-Oct-18 10:02 34.423079 -119.836090 161 17ft 0kts
10-Oct-18 10:03 34.423079 -119.836090 161 17ft 0kts
10-Oct-18 10:04 34.423079 -119.836090 161 17ft 0kts
10-Oct-18 10:05 34.423079 -119.836090 161 17ft 0kts
10-Oct-18 10:06 34.423079 -119.836090 161 17ft 0kts
10-Oct-18 10:07 34.423079 -119.836090 161 17ft 0kts
10-Oct-18 10:08 34.423079 -119.836090 161 17ft 0kts
10-Oct-18 10:09 34.423079 -119.836090 161 17ft 0kts
10-Oct-18 10:10 34.423079 -119.836090 161 17ft 0kts
10-Oct-18 10:11 34.423079 -119.836090 161 17ft 0kts
10-Oct-18 10:12 34.423079 -119.836090 161 17ft 0kts
10-Oct-18 10:13 34.423079 -119.836090 161 17ft 0kts
10-Oct-18 10:14 34.423079 -119.836090 161 17ft 0kts
10-Oct-18 10:15 34.423079 -119.836090 161 17ft 0kts
10-Oct-18 10:16 34.423079 -119.836090 161 17ft 0kts
10-Oct-18 10:17 34.423079 -119.836090 161 17ft 0kts
10-Oct-18 10:18 34.423079 -119.836090 161 17ft 0kts
10-Oct-18 10:19 34.423079 -119.836090 161 17ft 0kts
10-Oct-18 10:20 34.423079 -119.836090 161 17ft 0kts
10-Oct-18 10:21 34.423079 -119.836090 161 17ft 0kts
10-Oct-18 10:22 34.423079 -119.836090 161 17ft 0kts
10-Oct-18 10:23 34.423079 -119.836090 161 17ft 0kts
10-Oct-18 10:24 34.423079 -119.836090 161 17ft 0kts
10-Oct-18 10:25 34.423078 -119.836089 161 17ft 0kts
10-Oct-18 10:26 34.422693 -119.836922 259 17ft 4kts
10-Oct-18 10:27 34.425108 -119.837874 344 17ft 14kts
10-Oct-18 10:28 34.427784 -119.838698 346 17ft 10kts
10-Oct-18 10:29 34.430667 -119.839860 250 17ft 0kts
10-Oct-18 10:30 34.430666 -119.839863 250 17ft 0kts
10-Oct-18 10:31 34.430666 -119.839863 250 17ft 0kts
10-Oct-18 10:32 34.430666 -119.839863 250 17ft 0kts
10-Oct-18 10:33 34.430582 -119.840164 252 17ft 5kts
10-Oct-18 10:34 34.423728 -119.838176 164 93ft 85kts
10-Oct-18 10:35 34.397444 -119.828230 161 718ft 110kts
10-Oct-18 10:36 34.363044 -119.814574 161 1418ft 113kts
10-Oct-18 10:37 34.338230 -119.804725 161 1915ft 114kts
10-Oct-18 10:38 34.309194 -119.794301 161 2498ft 111kts
10-Oct-18 10:39 34.279452 -119.784013 161 3093ft 112kts
10-Oct-18 10:40 34.249909 -119.774044 161 3673ft 106kts
10-Oct-18 10:41 34.236624 -119.758702 77 4088ft 77kts
10-Oct-18 10:42 34.237574 -119.734423 88 4660ft 73kts
10-Oct-18 10:43 34.237422 -119.704548 88 5031ft 118kts
10-Oct-18 10:44 34.237120 -119.659888 88 5017ft 147kts
10-Oct-18 10:45 34.236762 -119.611302 88 5019ft 149kts
10-Oct-18 10:46 34.236338 -119.554034 88 5024ft 151kts
10-Oct-18 10:47 34.236031 -119.513193 88 5027ft 152kts
10-Oct-18 10:48 34.235598 -119.462083 88 5000ft 154kts
10-Oct-18 10:49 34.235154 -119.410885 88 5000ft 153kts
10-Oct-18 10:50 34.234697 -119.360145 88 5000ft 153kts
10-Oct-18 10:51 34.234422 -119.330840 89 5000ft 153kts
10-Oct-18 10:52 34.233970 -119.284047 89 5000ft 153kts
10-Oct-18 10:53 34.233475 -119.234750 89 4998ft 153kts
10-Oct-18 10:54 34.232897 -119.179538 89 4996ft 153kts
10-Oct-18 10:55 34.232485 -119.141498 89 4995ft 153kts
10-Oct-18 10:56 34.231998 -119.097977 89 4993ft 153kts
10-Oct-18 10:57 34.231500 -119.054770 89 4992ft 153kts
10-Oct-18 10:58 34.230981 -119.011012 89 4991ft 153kts
10-Oct-18 10:59 34.230435 -118.966436 89 4991ft 153kts
10-Oct-18 11:00 34.229839 -118.919118 89 4991ft 153kts
10-Oct-18 11:01 34.229217 -118.871291 89 4991ft 153kts
10-Oct-18 11:02 34.228583 -118.823873 89 4991ft 153kts
10-Oct-18 11:03 34.227925 -118.776088 89 4991ft 153kts
10-Oct-18 11:04 34.227300 -118.731786 89 4991ft 154kts
10-Oct-18 11:05 34.226729 -118.692255 89 4991ft 155kts
10-Oct-18 11:06 34.226180 -118.655100 89 4991ft 156kts
10-Oct-18 11:07 34.225579 -118.615271 90 4990ft 151kts
10-Oct-18 11:08 34.224861 -118.568574 90 4991ft 150kts
10-Oct-18 11:09 34.224127 -118.523314 90 4991ft 150kts
10-Oct-18 11:10 34.218579 -118.475334 109 4991ft 150kts
10-Oct-18 11:11 34.205125 -118.430650 109 4991ft 150kts
10-Oct-18 11:12 34.191138 -118.384478 108 4991ft 150kts
10-Oct-18 11:13 34.179851 -118.347294 109 4991ft 150kts
10-Oct-18 11:14 34.169284 -118.312537 109 4990ft 150kts
10-Oct-18 11:15 34.156147 -118.269372 109 4991ft 150kts
10-Oct-18 11:16 34.142123 -118.223330 108 4991ft 151kts
10-Oct-18 11:17 34.128496 -118.178687 108 4991ft 151kts
10-Oct-18 11:18 34.115430 -118.135977 109 4991ft 150kts
10-Oct-18 11:19 34.102055 -118.092515 109 4991ft 150kts
10-Oct-18 11:20 34.088884 -118.049637 109 4991ft 149kts
10-Oct-18 11:21 34.075429 -118.005853 109 4993ft 149kts
10-Oct-18 11:22 34.061806 -117.961559 109 4994ft 149kts
10-Oct-18 11:23 34.047569 -117.915346 109 4994ft 149kts
10-Oct-18 11:24 34.033839 -117.870843 109 4994ft 149kts
10-Oct-18 11:25 34.019838 -117.825551 109 4993ft 149kts
10-Oct-18 11:26 34.000896 -117.786281 166 4901ft 156kts
10-Oct-18 11:27 33.959110 -117.784458 179 4345ft 154kts
10-Oct-18 11:28 33.921190 -117.783686 179 3981ft 136kts
10-Oct-18 11:29 33.897718 -117.773575 125 3992ft 118kts
10-Oct-18 11:30 33.865988 -117.770354 187 3513ft 151kts
10-Oct-18 11:31 33.825049 -117.776839 187 2984ft 137kts
10-Oct-18 11:32 33.788488 -117.787201 211 2443ft 155kts
10-Oct-18 11:33 33.752214 -117.810122 214 1827ft 142kts
10-Oct-18 11:34 33.722190 -117.838095 211 993ft 116kts
10-Oct-18 11:35 33.696593 -117.855318 209 449ft 100kts
10-Oct-18 11:36 33.674074 -117.869838 207 60ft 74kts
10-Oct-18 11:37 33.670112 -117.873454 302 60ft 0kts
10-Oct-18 11:38 33.670135 -117.873486 314 60ft 0kts
10-Oct-18 11:39 33.671185 -117.873184 28 60ft 19kts
10-Oct-18 11:40 33.672421 -117.873332 33 60ft 0kts
10-Oct-18 11:41 33.672421 -117.873332 33 60ft 0kts
10-Oct-18 11:42 33.672421 -117.873332 33 60ft 0kts
10-Oct-18 11:43 33.672421 -117.873332 33 60ft 0kts

Navigation Log

Ident Type
1. KSBA Airport
2. KWANG Fix
3. CMA Navaid
4. VNY Navaid
5. DARTS Fix
6. PURMS Fix
7. ELMOO Fix
8. ITSME Fix
9. PIRRO Fix
10. ADAMM Fix
11. BAYJY Fix
12. PRADO Fix
13. POXKU Fix
14. OLLIE Fix
15. AHEIM Fix
16. SLI Navaid
17. KSNA Airport